createdAt,value
2019-02-02T00:07:27.689Z,5.90
2019-02-02T00:17:32.731Z,6.00
2019-02-02T00:27:41.395Z,6.40
2019-02-02T00:37:44.606Z,6.90
2019-02-02T00:47:49.934Z,6.50
2019-02-02T00:57:55.136Z,6.20
2019-02-02T01:08:00.284Z,5.90
2019-02-02T01:18:05.691Z,6.00
2019-02-02T01:28:10.889Z,6.10
2019-02-02T01:38:16.005Z,6.10
2019-02-02T01:48:21.254Z,6.10
2019-02-02T01:58:26.475Z,6.20
2019-02-02T02:08:31.765Z,6.10
2019-02-02T02:18:36.728Z,6.20
2019-02-02T02:28:41.802Z,6.20
2019-02-02T02:38:46.983Z,6.40
2019-02-02T02:48:52.170Z,6.40
2019-02-02T02:58:57.283Z,6.70
2019-02-02T03:09:02.776Z,6.90
2019-02-02T03:19:09.102Z,6.90
2019-02-02T03:29:14.296Z,7.10
2019-02-02T03:39:19.466Z,7.30
2019-02-02T03:49:24.667Z,7.50
2019-02-02T03:59:29.992Z,7.70
2019-02-02T04:09:35.162Z,7.80
2019-02-02T04:19:40.335Z,7.90
2019-02-02T04:29:45.410Z,8.00
2019-02-02T04:39:50.490Z,8.00
2019-02-02T04:49:55.585Z,8.10
2019-02-02T05:00:02.610Z,8.20
2019-02-02T05:10:10.999Z,8.00
2019-02-02T05:20:20.855Z,8.00
2019-02-02T05:30:29.239Z,8.00
2019-02-02T05:40:46.325Z,8.00
2019-02-02T05:50:51.589Z,8.00
2019-02-02T06:00:56.884Z,7.90
2019-02-02T06:11:02.468Z,7.90
2019-02-02T06:21:07.718Z,7.90
2019-02-02T06:31:12.889Z,8.00
2019-02-02T06:41:18.010Z,8.10
2019-02-02T06:51:23.205Z,8.00
2019-02-02T07:01:28.405Z,8.10
2019-02-02T07:11:33.613Z,8.20
2019-02-02T07:21:38.704Z,8.20
2019-02-02T07:31:43.925Z,8.30
2019-02-02T07:41:48.974Z,8.60
2019-02-02T07:51:54.184Z,8.80
2019-02-02T08:02:12.865Z,8.80
2019-02-02T08:12:19.531Z,8.90
2019-02-02T08:22:24.737Z,9.40
2019-02-02T08:32:29.860Z,9.90
2019-02-02T08:42:34.814Z,10.20
2019-02-02T08:52:39.940Z,10.50
2019-02-02T09:02:45.193Z,10.70
2019-02-02T09:12:50.610Z,11.20
2019-02-02T09:23:02.907Z,11.30
2019-02-02T09:33:02.451Z,11.60
2019-02-02T09:43:07.651Z,11.50
2019-02-02T09:53:13.084Z,11.70
2019-02-02T10:03:18.004Z,12.00
2019-02-02T10:13:29.489Z,12.10
2019-02-02T10:23:34.533Z,12.10
2019-02-02T10:33:39.702Z,11.90
2019-02-02T10:44:40.389Z,12.00
2019-02-02T10:54:45.546Z,12.90
2019-02-02T11:04:53.415Z,13.00
2019-02-02T11:14:57.587Z,12.70
2019-02-02T11:25:02.849Z,12.90
2019-02-02T11:35:10.786Z,13.20
2019-02-02T11:45:17.058Z,13.20
2019-02-02T11:55:24.035Z,13.10
2019-02-02T12:05:29.511Z,12.70
2019-02-02T12:15:35.208Z,12.30
2019-02-02T12:25:40.349Z,12.00
2019-02-02T12:35:45.646Z,11.90
2019-02-02T12:45:51.227Z,12.10
2019-02-02T12:55:59.568Z,12.20
2019-02-02T13:06:05.069Z,12.90
2019-02-02T13:16:11.566Z,13.00
2019-02-02T13:26:16.894Z,13.00
2019-02-02T13:36:22.206Z,13.10
2019-02-02T13:46:27.498Z,13.00
2019-02-02T13:56:32.861Z,12.90
2019-02-02T14:06:38.256Z,13.00
2019-02-02T14:16:43.539Z,13.20
2019-02-02T14:26:49.138Z,12.90
2019-02-02T14:36:54.485Z,12.70
2019-02-02T14:47:17.493Z,12.60
2019-02-02T14:57:24.450Z,12.70
2019-02-02T15:07:29.939Z,12.90
2019-02-02T15:17:39.210Z,12.60
2019-02-02T15:27:44.760Z,12.30
2019-02-02T15:37:50.148Z,12.10
2019-02-02T15:47:55.491Z,12.10
2019-02-02T15:58:01.796Z,11.90
2019-02-02T16:08:10.210Z,11.90
2019-02-02T16:18:20.433Z,11.70
2019-02-02T16:28:26.192Z,11.50
2019-02-02T16:38:31.631Z,11.00
2019-02-02T16:48:37.209Z,11.00
2019-02-02T16:58:42.634Z,10.80
2019-02-02T17:08:48.098Z,10.70
2019-02-02T17:18:53.533Z,10.30
2019-02-02T17:29:00.070Z,10.30
2019-02-02T17:39:06.370Z,9.80
2019-02-02T17:49:11.791Z,9.40
2019-02-02T17:59:17.248Z,9.40
2019-02-02T18:09:23.228Z,9.10
2019-02-02T18:19:28.637Z,9.30
2019-02-02T18:29:36.405Z,9.20
2019-02-02T18:39:41.969Z,9.60
2019-02-02T18:49:47.410Z,10.20
2019-02-02T19:00:06.137Z,10.60
2019-02-02T19:10:20.893Z,10.20
2019-02-02T19:20:31.156Z,10.50
2019-02-02T19:30:42.095Z,10.60
2019-02-02T19:40:52.724Z,10.80
2019-02-02T19:50:57.586Z,10.60
2019-02-02T20:01:03.008Z,10.70
2019-02-02T20:11:08.415Z,10.20
2019-02-02T20:21:13.818Z,10.00
2019-02-02T20:31:19.304Z,9.20
2019-02-02T20:41:25.028Z,9.40
2019-02-02T20:51:31.518Z,9.50
2019-02-02T21:01:38.548Z,9.50
2019-02-02T21:12:03.619Z,9.30
2019-02-02T21:22:12.017Z,8.80
2019-02-02T21:32:17.484Z,8.40
2019-02-02T21:42:24.291Z,8.50
2019-02-02T21:52:29.694Z,8.70
2019-02-02T22:02:37.330Z,8.70
2019-02-02T22:12:44.332Z,9.00
2019-02-02T22:22:52.939Z,9.10
2019-02-02T22:32:58.371Z,9.20
2019-02-02T22:43:03.684Z,9.00
2019-02-02T22:53:08.968Z,8.80
2019-02-02T23:03:17.401Z,8.90
2019-02-02T23:13:44.060Z,8.30
2019-02-02T23:23:49.770Z,8.60
2019-02-02T23:33:54.745Z,8.80
2019-02-02T23:43:59.825Z,8.70
2019-02-02T23:54:05.011Z,8.50
